This is the latest recevied weather packets stored in our database for station/object KB1RMA-13. If no packets are shown the sender has not sent any weather packets the latest 10 day(s).
| Time | Temp. | Humidity | Pressure | Rain* | Wind** | Luminosity | Snow |
|---|---|---|---|---|---|---|---|
| 1777912139 | 20.56° C | 33% | 1006.6 hPa | 0 mm | - | 894 W/m² | - |
| 1777911835 | 20° C | 34% | 1007 hPa | 0 mm | - | 894 W/m² | - |
| 1777911532 | 20° C | 33% | 1006.9 hPa | 0 mm | - | 104 W/m² | - |
| 1777911229 | 20° C | 33% | 1007 hPa | 0 mm | - | 157 W/m² | - |
| 1777910926 | 20° C | 33% | 1007.4 hPa | 0 mm | - | 105 W/m² | - |
| 1777910623 | 19.44° C | 36% | 1007.3 hPa | 0 mm | - | 158 W/m² | - |
| 1777910320 | 19.44° C | 35% | 1007.4 hPa | 0 mm | - | 104 W/m² | - |
| 1777910017 | 18.89° C | 35% | 1007.4 hPa | 0 mm | - | 736 W/m² | - |
| 1777909714 | 18.89° C | 35% | 1007.4 hPa | 0 mm | - | 542 W/m² | - |
| 1777909411 | 19.44° C | 36% | 1007.6 hPa | 0 mm | - | 103 W/m² | - |
| 1777909109 | 18.89° C | 38% | 1007.6 hPa | 0 mm | - | 105 W/m² | - |
| 1777908807 | 18.89° C | 36% | 1007.8 hPa | 0 mm | - | 870 W/m² | - |
| 1777908503 | 18.89° C | 37% | 1007.6 hPa | 0 mm | - | 745 W/m² | - |
| 1777908200 | 18.33° C | 38% | 1008.1 hPa | 0 mm | - | 133 W/m² | - |
| 1777907896 | 18.33° C | 38% | 1008.1 hPa | 0 mm | - | 145 W/m² | - |
| 1777907592 | 18.33° C | 38% | 1008.2 hPa | 0 mm | - | 773 W/m² | - |
| 1777907288 | 18.33° C | 39% | 1008.3 hPa | 0 mm | - | 142 W/m² | - |
| 1777906984 | 17.78° C | 39% | 1008.7 hPa | 0 mm | - | 133 W/m² | - |
| 1777906683 | 18.33° C | 39% | 1008.7 hPa | 0 mm | - | 121 W/m² | - |
| 1777906378 | 17.78° C | 39% | 1008.7 hPa | 0 mm | - | 227 W/m² | - |
| 1777906075 | 17.22° C | 42% | 1009.2 hPa | 0 mm | - | 113 W/m² | - |
| 1777905771 | 17.78° C | 39% | 1009.1 hPa | 0 mm | - | 772 W/m² | - |
| 1777905469 | 17.78° C | 41% | 1009.3 hPa | 0 mm | - | 286 W/m² | - |
| 1777905166 | 17.78° C | 40% | 1009.1 hPa | 0 mm | - | 106 W/m² | - |
| 1777904863 | 17.22° C | 41% | 1009.3 hPa | 0 mm | - | 749 W/m² | - |
* Rain latest hour (hover to see other rain measurements)
** Current wind speed in m/s (hover to see current wind gust speed)